x

Apk - Aripeka, Fl (arpf1) Weather Station

1:54am - Thu 22nd Jun 2017 All times are EDT. -4 hours from GMT.

  • Wind
    5mph, 7mph gusts
  • Air Temp 76°f
  • Sea Pressure 1017.9mb
  • Apk - Aripeka, Fl
  • Apk - Aripeka, Fl

More Historic Weather Station data

Upgrade to MSW Pro to gain access to the past 30 days of data for over 8000 Wavebouys and Weather Stations around the globe.

Join Pro

Comparision Forecast

View Surf forecast
   
Thu 06/22 1:54am 5 7 mph 1017.9mb 76f
1:48am 5 8 mph 1017.9mb 76f
12:54am 6 8 mph 1018.5mb 76f
12:48am 6 8 mph 1018.6mb 76f
Wed 06/21 11:54pm 6 9 mph 1018.9mb 76f
10:54pm 6 8 mph 1018mb 76f
10:48pm 6 9 mph 1017.9mb 76f
9:54pm 6 7 mph 1017.5mb 76f
9:48pm 5 7 mph 1017.4mb 76f
8:54pm 3 5 mph 1017.1mb 76f
8:48pm 2 3 mph 1017mb 76f
7:54pm 6 7 mph 1016.9mb 76f
7:48pm 6 8 mph 1016.9mb 76f
6:54pm 9 14 mph 1016.7mb 76f
6:48pm 11 15 mph 1016.8mb 77f
5:54pm  -  1 mph 1015.5mb 81f
4:54pm 2 7 mph 1016mb 79f
4:48pm 3 8 mph 1015.8mb 78f
3:54pm 3 6 mph 1015.8mb 78f
3:48pm 6 11 mph 1016.1mb 78f
2:54pm 2 5 mph 1015.8mb 90f
2:48pm 3 8 mph 1015.9mb 90f
1:54pm 3 10 mph 1016.1mb 89f
1:48pm 5 8 mph 1016.2mb 89f
12:54pm 3 8 mph 1016.5mb 90f
12:48pm 5 10 mph 1016.5mb 90f
11:54am 7 14 mph 1016.5mb 87f
11:48am 5 8 mph 1016.5mb 87f
10:54am 5 9 mph 1016.4mb 86f
10:48am 5 9 mph 1016.4mb 86f
9:54am 5 10 mph 1016.4mb 83f
8:54am 5 10 mph 1016.2mb 80f
8:48am 5 10 mph 1016.1mb 80f
7:54am 5 7 mph 1015.7mb 78f
7:48am 5 8 mph 1015.7mb 78f
6:54am 6 8 mph 1015.3mb 77f
6:48am 5 8 mph 1015.3mb 76f
5:54am 5 7 mph 1015.1mb 77f
5:48am 5 7 mph 1015mb 76f
4:54am 5 7 mph 1014.8mb 77f
4:48am 5 7 mph 1014.8mb 77f
3:54am 5 7 mph 1014.8mb 77f
3:48am 3 6 mph 1014.8mb 77f
2:54am 3 5 mph 1015.2mb 77f
2:48am 3 6 mph 1015.2mb 77f
1:54am 5 8 mph 1015.5mb 77f
1:48am 5 8 mph 1015.5mb 77f
12:54am 5 6 mph 1016.3mb 78f
12:48am 5 7 mph 1016.3mb 78f
Tue 06/20 11:54pm 2 5 mph 1016.3mb 78f
11:48pm 3 6 mph 1016.3mb 78f
10:54pm 2 3 mph 1016.1mb 79f
10:48pm 3 8 mph 1016.1mb 79f
9:54pm 2 5 mph 1015.2mb 81f
9:48pm 3 6 mph 1015.1mb 81f
8:54pm 3 6 mph 1014.5mb 84f
8:48pm 3 6 mph 1014.4mb 84f
7:54pm 3 6 mph 1014.1mb 85f
7:48pm 3 6 mph 1014mb 85f
6:54pm 3 5 mph 1013.8mb 86f
6:48pm 3 6 mph 1013.7mb 86f
5:54pm 3 5 mph 1013.8mb 87f
5:48pm 3 5 mph 1013.8mb 87f
4:54pm 2 5 mph 1013.9mb 87f
4:48pm 2 5 mph 1013.9mb 86f
3:54pm 2 5 mph 1014.3mb 87f
3:48pm 2 8 mph 1014.2mb 87f
2:54pm 5 11 mph 1014.8mb 87f
2:48pm 5 9 mph 1014.9mb 87f
1:54pm 2 5 mph 1015.4mb 86f
1:48pm 5 10 mph 1015.5mb 86f
12:54pm 5 13 mph 1015.9mb 85f
12:48pm 6 11 mph 1016mb 85f
11:54am 5 10 mph 1016.3mb 85f
11:48am 5 10 mph 1016.3mb 85f
10:54am 7 11 mph 1016.3mb 83f
10:48am 6 11 mph 1016.4mb 83f
9:54am 7 16 mph 1016.5mb 81f
9:48am 7 10 mph 1016.5mb 81f
8:54am 6 11 mph 1016.4mb 79f
8:48am 8 13 mph 1016.4mb 79f
7:54am 6 11 mph 1015.9mb 78f
7:48am 5 7 mph 1015.9mb 77f
6:54am 6 9 mph 1015.5mb 76f
6:48am 7 9 mph 1015.4mb 76f
5:54am 6 10 mph 1015.3mb 76f
5:48am 6 8 mph 1015.3mb 76f
4:54am 6 9 mph 1015.2mb 76f
4:48am 6 8 mph 1015.2mb 75f
3:54am 6 8 mph 1015.3mb 75f
3:48am 6 8 mph 1015.3mb 75f
2:54am 6 8 mph 1015.9mb 75f
2:48am 6 8 mph 1016mb 75f
1:54am 7 10 mph 1016.4mb 75f
1:48am 6 9 mph 1016.4mb 75f
12:54am 5 8 mph 1016.7mb 76f
12:48am 6 8 mph 1016.8mb 75f
Mon 06/19 11:54pm 5 7 mph 1017.2mb 75f
11:48pm 5 9 mph 1017.3mb 75f
10:54pm 6 8 mph 1017mb 75f
10:48pm 6 10 mph 1017mb 75f
9:54pm 7 9 mph 1016.6mb 75f
9:48pm 6 9 mph 1016.5mb 75f
8:54pm 6 8 mph 1016.4mb 75f
8:48pm 6 8 mph 1016.4mb 75f
7:54pm 6 8 mph 1016.2mb 76f
7:48pm 6 8 mph 1016.2mb 76f
6:54pm 6 8 mph 1015.9mb 76f
6:48pm 5 8 mph 1015.9mb 76f
5:54pm 6 8 mph 1015.9mb 76f
5:48pm 5 7 mph 1015.9mb 76f
4:54pm 2 5 mph 1016mb 75f
4:48pm 3 6 mph 1016.1mb 75f
3:54pm 9 22 mph 1016mb 78f
3:48pm 10 17 mph 1015.7mb 82f
2:54pm 2 6 mph 1015.3mb 84f
2:48pm 2 6 mph 1015.2mb 83f
1:54pm 3 9 mph 1015.2mb 83f
1:48pm 3 8 mph 1015.3mb 82f
12:54pm 2 6 mph 1016mb 81f
12:48pm 3 6 mph 1016.1mb 81f
11:54am 3 6 mph 1016.3mb 80f
11:48am 3 7 mph 1016.3mb 80f
10:54am 2 6 mph 1016.4mb 78f
10:48am 3 6 mph 1016.4mb 78f
9:54am 3 7 mph 1016mb 78f
9:48am 5 7 mph 1016mb 77f
8:54am 7 10 mph 1015.7mb 77f
8:48am 6 8 mph 1015.7mb 77f
7:54am 5 7 mph 1015.1mb 76f
7:48am 5 9 mph 1015mb 76f
6:54am 6 8 mph 1014.4mb 75f
6:48am 6 7 mph 1014.3mb 75f